sensor_id;sensor_type;location;lat;lon;timestamp;pressure;altitude;pressure_sealevel;temperature;humidity
9187;BME280;7273;48.902;9.410;2023-12-04T00:02:23;98202.88;;;-2.24;81.80
9187;BME280;7273;48.902;9.410;2023-12-04T00:04:49;98210.88;;;-2.17;81.34
9187;BME280;7273;48.902;9.410;2023-12-04T00:07:14;98201.69;;;-2.21;81.43
9187;BME280;7273;48.902;9.410;2023-12-04T00:09:40;98199.84;;;-2.21;81.45
9187;BME280;7273;48.902;9.410;2023-12-04T00:12:06;98181.06;;;-2.26;81.43
9187;BME280;7273;48.902;9.410;2023-12-04T00:14:31;98177.19;;;-2.30;81.23
9187;BME280;7273;48.902;9.410;2023-12-04T00:16:57;98170.31;;;-2.24;81.37
9187;BME280;7273;48.902;9.410;2023-12-04T00:19:22;98164.81;;;-2.23;81.53
9187;BME280;7273;48.902;9.410;2023-12-04T00:21:48;98171.97;;;-2.17;81.56
9187;BME280;7273;48.902;9.410;2023-12-04T00:24:14;98171.16;;;-2.17;81.36
9187;BME280;7273;48.902;9.410;2023-12-04T00:26:40;98176.84;;;-2.20;81.20
9187;BME280;7273;48.902;9.410;2023-12-04T00:29:06;98167.06;;;-2.20;81.04
9187;BME280;7273;48.902;9.410;2023-12-04T00:31:32;98169.09;;;-2.22;80.79
9187;BME280;7273;48.902;9.410;2023-12-04T00:33:57;98170.91;;;-2.22;80.69
9187;BME280;7273;48.902;9.410;2023-12-04T00:36:23;98161.06;;;-2.35;80.50
9187;BME280;7273;48.902;9.410;2023-12-04T00:38:49;98154.84;;;-2.48;80.71
9187;BME280;7273;48.902;9.410;2023-12-04T00:41:15;98143.06;;;-2.46;80.77
9187;BME280;7273;48.902;9.410;2023-12-04T00:43:40;98149.50;;;-2.55;80.74
9187;BME280;7273;48.902;9.410;2023-12-04T00:46:06;98151.19;;;-2.47;80.92
9187;BME280;7273;48.902;9.410;2023-12-04T00:48:32;98148.88;;;-2.57;80.90
9187;BME280;7273;48.902;9.410;2023-12-04T00:50:58;98144.59;;;-2.58;81.08
9187;BME280;7273;48.902;9.410;2023-12-04T00:53:24;98139.03;;;-2.63;80.99
9187;BME280;7273;48.902;9.410;2023-12-04T00:55:49;98127.75;;;-2.50;81.11
9187;BME280;7273;48.902;9.410;2023-12-04T00:58:15;98125.91;;;-2.50;81.23
9187;BME280;7273;48.902;9.410;2023-12-04T01:00:40;98128.75;;;-2.51;81.32
9187;BME280;7273;48.902;9.410;2023-12-04T01:03:06;98127.94;;;-2.52;81.18
9187;BME280;7273;48.902;9.410;2023-12-04T01:05:32;98123.22;;;-2.56;81.43
9187;BME280;7273;48.902;9.410;2023-12-04T01:07:57;98120.44;;;-2.48;81.59
9187;BME280;7273;48.902;9.410;2023-12-04T01:10:23;98109.84;;;-2.48;81.55
9187;BME280;7273;48.902;9.410;2023-12-04T01:12:49;98113.31;;;-2.48;81.66
9187;BME280;7273;48.902;9.410;2023-12-04T01:15:15;98099.06;;;-2.47;81.41
9187;BME280;7273;48.902;9.410;2023-12-04T01:17:41;98101.84;;;-2.55;81.30
9187;BME280;7273;48.902;9.410;2023-12-04T01:20:07;98100.13;;;-2.41;81.61
9187;BME280;7273;48.902;9.410;2023-12-04T01:22:32;98106.19;;;-2.47;81.50
9187;BME280;7273;48.902;9.410;2023-12-04T01:24:58;98105.13;;;-2.53;81.67
9187;BME280;7273;48.902;9.410;2023-12-04T01:27:23;98102.63;;;-2.61;81.40
9187;BME280;7273;48.902;9.410;2023-12-04T01:29:49;98101.25;;;-2.57;81.50
9187;BME280;7273;48.902;9.410;2023-12-04T01:32:15;98091.06;;;-2.53;81.73
9187;BME280;7273;48.902;9.410;2023-12-04T01:34:40;98092.25;;;-2.62;81.58
9187;BME280;7273;48.902;9.410;2023-12-04T01:37:06;98092.00;;;-2.67;81.82
9187;BME280;7273;48.902;9.410;2023-12-04T01:39:31;98086.56;;;-2.59;81.62
9187;BME280;7273;48.902;9.410;2023-12-04T01:41:57;98084.16;;;-2.54;81.87
9187;BME280;7273;48.902;9.410;2023-12-04T01:44:23;98079.59;;;-2.67;81.66
9187;BME280;7273;48.902;9.410;2023-12-04T01:46:49;98085.50;;;-2.65;81.57
9187;BME280;7273;48.902;9.410;2023-12-04T01:49:15;98073.03;;;-2.71;81.94
9187;BME280;7273;48.902;9.410;2023-12-04T01:51:42;98077.56;;;-2.65;81.62
9187;BME280;7273;48.902;9.410;2023-12-04T01:54:08;98078.63;;;-2.59;81.71
9187;BME280;7273;48.902;9.410;2023-12-04T01:56:36;98084.31;;;-2.62;81.58
9187;BME280;7273;48.902;9.410;2023-12-04T01:59:01;98084.50;;;-2.64;82.05
9187;BME280;7273;48.902;9.410;2023-12-04T02:01:28;98073.91;;;-2.64;81.89
9187;BME280;7273;48.902;9.410;2023-12-04T02:03:54;98077.00;;;-2.60;81.77
9187;BME280;7273;48.902;9.410;2023-12-04T02:06:21;98080.44;;;-2.60;81.84
9187;BME280;7273;48.902;9.410;2023-12-04T02:08:47;98071.69;;;-2.60;81.76
9187;BME280;7273;48.902;9.410;2023-12-04T02:11:13;98066.78;;;-2.63;81.66
9187;BME280;7273;48.902;9.410;2023-12-04T02:13:39;98067.59;;;-2.63;81.97
9187;BME280;7273;48.902;9.410;2023-12-04T02:16:08;98064.94;;;-2.63;81.94
9187;BME280;7273;48.902;9.410;2023-12-04T02:18:35;98064.38;;;-2.58;81.93
9187;BME280;7273;48.902;9.410;2023-12-04T02:21:01;98066.41;;;-2.60;82.00
9187;BME280;7273;48.902;9.410;2023-12-04T02:23:27;98069.50;;;-2.57;81.85
9187;BME280;7273;48.902;9.410;2023-12-04T02:26:00;98063.56;;;-2.59;81.85
9187;BME280;7273;48.902;9.410;2023-12-04T02:28:30;98062.19;;;-2.48;81.84
9187;BME280;7273;48.902;9.410;2023-12-04T02:30:58;98056.09;;;-2.49;81.98
9187;BME280;7273;48.902;9.410;2023-12-04T02:33:25;98049.16;;;-2.50;81.63
9187;BME280;7273;48.902;9.410;2023-12-04T02:35:53;98049.63;;;-2.40;81.69
9187;BME280;7273;48.902;9.410;2023-12-04T02:38:19;98041.91;;;-2.35;81.61
9187;BME280;7273;48.902;9.410;2023-12-04T02:40:46;98033.19;;;-2.29;81.51
9187;BME280;7273;48.902;9.410;2023-12-04T02:43:12;98033.97;;;-2.35;81.59
9187;BME280;7273;48.902;9.410;2023-12-04T02:45:37;98032.59;;;-2.31;81.62
9187;BME280;7273;48.902;9.410;2023-12-04T02:48:03;98035.41;;;-2.32;81.35
9187;BME280;7273;48.902;9.410;2023-12-04T02:50:28;98031.56;;;-2.30;81.54
9187;BME280;7273;48.902;9.410;2023-12-04T02:52:53;98032.78;;;-2.26;81.53
9187;BME280;7273;48.902;9.410;2023-12-04T02:55:19;98024.59;;;-2.37;81.03
9187;BME280;7273;48.902;9.410;2023-12-04T02:57:44;98017.50;;;-2.30;81.09
9187;BME280;7273;48.902;9.410;2023-12-04T03:00:10;98014.19;;;-2.39;81.06
9187;BME280;7273;48.902;9.410;2023-12-04T03:02:36;98017.88;;;-2.33;80.85
9187;BME280;7273;48.902;9.410;2023-12-04T03:05:01;98008.34;;;-2.28;81.07
9187;BME280;7273;48.902;9.410;2023-12-04T03:07:27;98007.06;;;-2.38;80.77
9187;BME280;7273;48.902;9.410;2023-12-04T03:09:52;97994.88;;;-2.33;80.92
9187;BME280;7273;48.902;9.410;2023-12-04T03:12:17;97994.03;;;-2.40;80.70
9187;BME280;7273;48.902;9.410;2023-12-04T03:14:43;97984.53;;;-2.28;81.03
9187;BME280;7273;48.902;9.410;2023-12-04T03:17:08;97992.25;;;-2.33;80.81
9187;BME280;7273;48.902;9.410;2023-12-04T03:19:34;97978.81;;;-2.31;80.97
9187;BME280;7273;48.902;9.410;2023-12-04T03:22:00;97976.09;;;-2.44;80.69
9187;BME280;7273;48.902;9.410;2023-12-04T03:24:25;97969.75;;;-2.50;81.04
9187;BME280;7273;48.902;9.410;2023-12-04T03:26:51;97973.06;;;-2.41;80.92
9187;BME280;7273;48.902;9.410;2023-12-04T03:29:17;97978.91;;;-2.52;81.14
9187;BME280;7273;48.902;9.410;2023-12-04T03:31:43;97972.59;;;-2.51;80.97
9187;BME280;7273;48.902;9.410;2023-12-04T03:34:08;97965.72;;;-2.46;80.87
9187;BME280;7273;48.902;9.410;2023-12-04T03:36:33;97959.81;;;-2.41;81.20
9187;BME280;7273;48.902;9.410;2023-12-04T03:38:59;97949.25;;;-2.35;81.14
9187;BME280;7273;48.902;9.410;2023-12-04T03:41:24;97945.19;;;-2.37;80.79
9187;BME280;7273;48.902;9.410;2023-12-04T03:43:49;97946.81;;;-2.36;80.95
9187;BME280;7273;48.902;9.410;2023-12-04T03:46:15;97945.19;;;-2.37;80.74
9187;BME280;7273;48.902;9.410;2023-12-04T03:48:40;97937.25;;;-2.37;80.45
9187;BME280;7273;48.902;9.410;2023-12-04T03:51:06;97932.78;;;-2.30;80.68
9187;BME280;7273;48.902;9.410;2023-12-04T03:53:31;97916.66;;;-2.35;80.64
9187;BME280;7273;48.902;9.410;2023-12-04T03:56:00;97923.38;;;-2.46;80.58
9187;BME280;7273;48.902;9.410;2023-12-04T03:58:25;97911.53;;;-2.43;80.44
9187;BME280;7273;48.902;9.410;2023-12-04T04:00:50;97919.91;;;-2.40;80.66
9187;BME280;7273;48.902;9.410;2023-12-04T04:03:16;97905.00;;;-2.54;80.57
9187;BME280;7273;48.902;9.410;2023-12-04T04:05:41;97903.81;;;-2.45;81.00
9187;BME280;7273;48.902;9.410;2023-12-04T04:08:07;97901.50;;;-2.61;80.81
9187;BME280;7273;48.902;9.410;2023-12-04T04:10:33;97905.00;;;-2.54;81.11
9187;BME280;7273;48.902;9.410;2023-12-04T04:12:58;97894.44;;;-2.47;81.17
9187;BME280;7273;48.902;9.410;2023-12-04T04:15:24;97901.97;;;-2.51;81.21
9187;BME280;7273;48.902;9.410;2023-12-04T04:17:50;97902.56;;;-2.55;81.23
9187;BME280;7273;48.902;9.410;2023-12-04T04:20:16;97902.13;;;-2.65;81.18
9187;BME280;7273;48.902;9.410;2023-12-04T04:22:41;97902.72;;;-2.63;81.13
9187;BME280;7273;48.902;9.410;2023-12-04T04:25:07;97914.31;;;-2.64;81.09
9187;BME280;7273;48.902;9.410;2023-12-04T04:27:33;97908.44;;;-2.60;80.89
9187;BME280;7273;48.902;9.410;2023-12-04T04:29:58;97916.13;;;-2.65;80.93
9187;BME280;7273;48.902;9.410;2023-12-04T04:32:24;97907.66;;;-2.54;81.08
9187;BME280;7273;48.902;9.410;2023-12-04T04:34:49;97903.75;;;-2.58;80.99
9187;BME280;7273;48.902;9.410;2023-12-04T04:37:15;97906.47;;;-2.45;81.20
9187;BME280;7273;48.902;9.410;2023-12-04T04:39:40;97911.34;;;-2.42;81.03
9187;BME280;7273;48.902;9.410;2023-12-04T04:42:06;97908.50;;;-2.40;81.04
9187;BME280;7273;48.902;9.410;2023-12-04T04:44:31;97914.41;;;-2.45;80.95
9187;BME280;7273;48.902;9.410;2023-12-04T04:46:56;97911.75;;;-2.45;81.21
9187;BME280;7273;48.902;9.410;2023-12-04T04:49:22;97903.19;;;-2.40;81.23
9187;BME280;7273;48.902;9.410;2023-12-04T04:51:47;97911.78;;;-2.32;81.20
9187;BME280;7273;48.902;9.410;2023-12-04T04:54:13;97908.91;;;-2.37;81.03
9187;BME280;7273;48.902;9.410;2023-12-04T04:56:38;97908.50;;;-2.40;81.01
9187;BME280;7273;48.902;9.410;2023-12-04T04:59:03;97912.19;;;-2.35;81.11
9187;BME280;7273;48.902;9.410;2023-12-04T05:01:29;97913.19;;;-2.49;80.77
9187;BME280;7273;48.902;9.410;2023-12-04T05:03:54;97907.50;;;-2.39;81.11
9187;BME280;7273;48.902;9.410;2023-12-04T05:06:20;97906.28;;;-2.30;81.15
9187;BME280;7273;48.902;9.410;2023-12-04T05:08:47;97901.81;;;-2.30;81.41
9187;BME280;7273;48.902;9.410;2023-12-04T05:11:14;97902.44;;;-2.34;81.18
9187;BME280;7273;48.902;9.410;2023-12-04T05:13:40;97900.56;;;-2.34;81.21
9187;BME280;7273;48.902;9.410;2023-12-04T05:16:05;97898.09;;;-2.42;81.10
9187;BME280;7273;48.902;9.410;2023-12-04T05:18:31;97900.56;;;-2.34;81.29
9187;BME280;7273;48.902;9.410;2023-12-04T05:20:57;97896.28;;;-2.41;80.96
9187;BME280;7273;48.902;9.410;2023-12-04T05:23:22;97883.69;;;-2.39;80.60
9187;BME280;7273;48.902;9.410;2023-12-04T05:25:47;97880.63;;;-2.36;80.64
9187;BME280;7273;48.902;9.410;2023-12-04T05:28:13;97874.53;;;-2.30;80.60
9187;BME280;7273;48.902;9.410;2023-12-04T05:30:38;97872.28;;;-2.33;80.14
9187;BME280;7273;48.902;9.410;2023-12-04T05:33:04;97874.94;;;-2.27;80.06
9187;BME280;7273;48.902;9.410;2023-12-04T05:35:29;97867.63;;;-2.18;79.91
9187;BME280;7273;48.902;9.410;2023-12-04T05:37:58;97865.81;;;-2.18;80.03
9187;BME280;7273;48.902;9.410;2023-12-04T05:40:23;97859.09;;;-2.14;80.10
9187;BME280;7273;48.902;9.410;2023-12-04T05:42:48;97865.41;;;-2.08;80.17
9187;BME280;7273;48.902;9.410;2023-12-04T05:45:14;97854.59;;;-2.13;80.15
9187;BME280;7273;48.902;9.410;2023-12-04T05:47:39;97855.03;;;-2.16;80.06
9187;BME280;7273;48.902;9.410;2023-12-04T05:50:05;97846.25;;;-2.17;79.88
9187;BME280;7273;48.902;9.410;2023-12-04T05:52:31;97833.84;;;-2.16;79.31
9187;BME280;7273;48.902;9.410;2023-12-04T05:54:56;97831.38;;;-2.18;79.08
9187;BME280;7273;48.902;9.410;2023-12-04T05:57:21;97827.72;;;-2.17;78.82
9187;BME280;7273;48.902;9.410;2023-12-04T05:59:47;97829.34;;;-2.09;78.80
9187;BME280;7273;48.902;9.410;2023-12-04T06:02:13;97831.19;;;-2.03;79.04
9187;BME280;7273;48.902;9.410;2023-12-04T06:04:40;97833.22;;;-2.05;78.94
9187;BME280;7273;48.902;9.410;2023-12-04T06:07:05;97835.06;;;-1.99;78.83
9187;BME280;7273;48.902;9.410;2023-12-04T06:09:32;97835.25;;;-2.01;78.97
9187;BME280;7273;48.902;9.410;2023-12-04T06:11:57;97829.97;;;-2.07;79.14
9187;BME280;7273;48.902;9.410;2023-12-04T06:14:23;97828.75;;;-1.98;79.09
9187;BME280;7273;48.902;9.410;2023-12-04T06:16:48;97831.00;;;-2.08;78.84
9187;BME280;7273;48.902;9.410;2023-12-04T06:19:13;97831.19;;;-2.03;78.92
9187;BME280;7273;48.902;9.410;2023-12-04T06:21:39;97834.63;;;-2.09;79.02
9187;BME280;7273;48.902;9.410;2023-12-04T06:24:05;97831.78;;;-2.01;79.10
9187;BME280;7273;48.902;9.410;2023-12-04T06:26:35;97826.47;;;-2.08;78.89
9187;BME280;7273;48.902;9.410;2023-12-04T06:29:01;97834.63;;;-2.16;78.76
9187;BME280;7273;48.902;9.410;2023-12-04T06:31:27;97834.63;;;-2.09;78.59
9187;BME280;7273;48.902;9.410;2023-12-04T06:33:53;97837.06;;;-2.08;78.88
9187;BME280;7273;48.902;9.410;2023-12-04T06:36:18;97832.41;;;-2.12;78.66
9187;BME280;7273;48.902;9.410;2023-12-04T06:38:46;97837.06;;;-2.14;78.80
9187;BME280;7273;48.902;9.410;2023-12-04T06:41:12;97836.69;;;-2.11;78.75
9187;BME280;7273;48.902;9.410;2023-12-04T06:43:38;97830.16;;;-2.09;78.88
9187;BME280;7273;48.902;9.410;2023-12-04T06:46:04;97845.84;;;-2.07;78.89
9187;BME280;7273;48.902;9.410;2023-12-04T06:48:31;97838.09;;;-2.09;78.74
9187;BME280;7273;48.902;9.410;2023-12-04T06:50:57;97840.34;;;-2.06;78.99
9187;BME280;7273;48.902;9.410;2023-12-04T06:53:23;97840.94;;;-2.17;79.08
9187;BME280;7273;48.902;9.410;2023-12-04T06:55:48;97830.97;;;-2.21;78.79
9187;BME280;7273;48.902;9.410;2023-12-04T06:58:14;97833.84;;;-2.16;78.96
9187;BME280;7273;48.902;9.410;2023-12-04T07:00:39;97826.69;;;-2.22;79.16
9187;BME280;7273;48.902;9.410;2023-12-04T07:03:05;97822.81;;;-2.33;78.96
9187;BME280;7273;48.902;9.410;2023-12-04T07:05:30;97814.06;;;-2.20;79.25
9187;BME280;7273;48.902;9.410;2023-12-04T07:07:55;97814.06;;;-2.27;79.28
9187;BME280;7273;48.902;9.410;2023-12-04T07:10:21;97819.13;;;-2.32;79.05
9187;BME280;7273;48.902;9.410;2023-12-04T07:12:46;97820.78;;;-2.31;79.34
9187;BME280;7273;48.902;9.410;2023-12-04T07:15:12;97807.56;;;-2.24;79.35
9187;BME280;7273;48.902;9.410;2023-12-04T07:17:37;97808.53;;;-2.32;79.64
9187;BME280;7273;48.902;9.410;2023-12-04T07:20:04;97806.50;;;-2.36;79.44
9187;BME280;7273;48.902;9.410;2023-12-04T07:22:33;97803.84;;;-2.36;79.72
9187;BME280;7273;48.902;9.410;2023-12-04T07:24:58;97803.03;;;-2.30;79.39
9187;BME280;7273;48.902;9.410;2023-12-04T07:27:24;97788.19;;;-2.31;79.66
9187;BME280;7273;48.902;9.410;2023-12-04T07:29:49;97787.16;;;-2.30;79.45
9187;BME280;7273;48.902;9.410;2023-12-04T07:32:15;97781.66;;;-2.29;79.16
9187;BME280;7273;48.902;9.410;2023-12-04T07:34:40;97774.75;;;-2.30;78.78
9187;BME280;7273;48.902;9.410;2023-12-04T07:37:05;97773.31;;;-2.26;78.75
9187;BME280;7273;48.902;9.410;2023-12-04T07:39:31;97769.25;;;-2.22;78.72
9187;BME280;7273;48.902;9.410;2023-12-04T07:41:56;97767.44;;;-2.15;78.88
9187;BME280;7273;48.902;9.410;2023-12-04T07:44:22;97765.78;;;-2.09;78.70
9187;BME280;7273;48.902;9.410;2023-12-04T07:46:47;97757.25;;;-2.05;78.90
9187;BME280;7273;48.902;9.410;2023-12-04T07:49:12;97764.78;;;-1.95;78.96
9187;BME280;7273;48.902;9.410;2023-12-04T07:51:38;97763.31;;;-1.98;79.04
9187;BME280;7273;48.902;9.410;2023-12-04T07:54:04;97775.56;;;-1.97;78.83
9187;BME280;7273;48.902;9.410;2023-12-04T07:56:29;97772.09;;;-1.91;78.79
9187;BME280;7273;48.902;9.410;2023-12-04T07:58:55;97769.44;;;-1.84;78.84
9187;BME280;7273;48.902;9.410;2023-12-04T08:01:20;97764.34;;;-1.86;78.63
9187;BME280;7273;48.902;9.410;2023-12-04T08:03:46;97766.38;;;-1.81;78.33
9187;BME280;7273;48.902;9.410;2023-12-04T08:06:11;97771.47;;;-1.86;78.53
9187;BME280;7273;48.902;9.410;2023-12-04T08:08:37;97764.16;;;-1.84;78.39
9187;BME280;7273;48.902;9.410;2023-12-04T08:11:02;97760.47;;;-1.83;78.46
9187;BME280;7273;48.902;9.410;2023-12-04T08:13:28;97761.69;;;-1.79;78.25
9187;BME280;7273;48.902;9.410;2023-12-04T08:15:53;97754.78;;;-1.80;78.44
9187;BME280;7273;48.902;9.410;2023-12-04T08:18:19;97755.56;;;-1.80;78.44
9187;BME280;7273;48.902;9.410;2023-12-04T08:20:44;97749.25;;;-1.66;78.47
9187;BME280;7273;48.902;9.410;2023-12-04T08:23:09;97748.00;;;-1.63;78.52
9187;BME280;7273;48.902;9.410;2023-12-04T08:25:35;97738.41;;;-1.58;79.04
9187;BME280;7273;48.902;9.410;2023-12-04T08:28:03;97729.00;;;-1.54;79.26
9187;BME280;7273;48.902;9.410;2023-12-04T08:30:28;97732.25;;;-1.45;79.15
9187;BME280;7273;48.902;9.410;2023-12-04T08:32:54;97728.78;;;-1.46;79.14
9187;BME280;7273;48.902;9.410;2023-12-04T08:35:19;97740.63;;;-1.48;79.05
9187;BME280;7273;48.902;9.410;2023-12-04T08:37:45;97741.84;;;-1.44;79.14
9187;BME280;7273;48.902;9.410;2023-12-04T08:40:11;97737.56;;;-1.52;79.15
9187;BME280;7273;48.902;9.410;2023-12-04T08:42:37;97733.72;;;-1.56;78.55
9187;BME280;7273;48.902;9.410;2023-12-04T08:45:04;97711.28;;;-1.60;78.53
9187;BME280;7273;48.902;9.410;2023-12-04T08:47:31;97712.72;;;-1.64;78.45
9187;BME280;7273;48.902;9.410;2023-12-04T08:49:56;97717.00;;;-1.56;78.56
9187;BME280;7273;48.902;9.410;2023-12-04T08:52:22;97714.78;;;-1.66;78.53
9187;BME280;7273;48.902;9.410;2023-12-04T08:54:47;97712.31;;;-1.61;78.71
9187;BME280;7273;48.902;9.410;2023-12-04T08:57:13;97703.31;;;-1.53;78.82
9187;BME280;7273;48.902;9.410;2023-12-04T08:59:38;97712.53;;;-1.56;78.71
9187;BME280;7273;48.902;9.410;2023-12-04T09:02:04;97709.69;;;-1.61;78.68
9187;BME280;7273;48.902;9.410;2023-12-04T09:04:30;97707.63;;;-1.65;78.63
9187;BME280;7273;48.902;9.410;2023-12-04T09:06:56;97713.31;;;-1.55;78.64
9187;BME280;7273;48.902;9.410;2023-12-04T09:09:22;97716.78;;;-1.48;78.91
9187;BME280;7273;48.902;9.410;2023-12-04T09:11:47;97725.31;;;-1.40;78.69
9187;BME280;7273;48.902;9.410;2023-12-04T09:14:13;97718.00;;;-1.44;78.80
9187;BME280;7273;48.902;9.410;2023-12-04T09:16:38;97724.09;;;-1.44;78.65
9187;BME280;7273;48.902;9.410;2023-12-04T09:19:03;97728.16;;;-1.34;78.63
9187;BME280;7273;48.902;9.410;2023-12-04T09:21:29;97719.75;;;-1.25;78.59
9187;BME280;7273;48.902;9.410;2023-12-04T09:23:54;97720.34;;;-1.23;79.02
9187;BME280;7273;48.902;9.410;2023-12-04T09:26:20;97719.56;;;-1.30;78.96
9187;BME280;7273;48.902;9.410;2023-12-04T09:28:45;97721.38;;;-1.30;78.90
9187;BME280;7273;48.902;9.410;2023-12-04T09:31:11;97745.00;;;-1.16;78.98
9187;BME280;7273;48.902;9.410;2023-12-04T09:33:37;97743.34;;;-1.10;79.17
9187;BME280;7273;48.902;9.410;2023-12-04T09:36:03;97743.53;;;-1.05;79.26
9187;BME280;7273;48.902;9.410;2023-12-04T09:38:29;97742.50;;;-1.04;79.13
9187;BME280;7273;48.902;9.410;2023-12-04T09:41:00;97733.78;;;-1.11;78.57
9187;BME280;7273;48.902;9.410;2023-12-04T09:43:33;97731.13;;;-1.11;78.68
9187;BME280;7273;48.902;9.410;2023-12-04T09:45:59;97710.09;;;-1.13;78.71
9187;BME280;7273;48.902;9.410;2023-12-04T09:48:26;97716.66;;;-1.22;78.39
9187;BME280;7273;48.902;9.410;2023-12-04T09:50:52;97705.19;;;-1.16;78.75
9187;BME280;7273;48.902;9.410;2023-12-04T09:53:18;97718.47;;;-1.16;78.36
9187;BME280;7273;48.902;9.410;2023-12-04T09:55:48;97712.56;;;-1.11;78.62
9187;BME280;7273;48.902;9.410;2023-12-04T09:58:14;97705.00;;;-1.14;78.83
9187;BME280;7273;48.902;9.410;2023-12-04T10:00:42;97704.56;;;-1.05;78.97
9187;BME280;7273;48.902;9.410;2023-12-04T10:03:08;97704.53;;;-0.98;79.09
9187;BME280;7273;48.902;9.410;2023-12-04T10:05:33;97699.59;;;-0.95;79.30
9187;BME280;7273;48.902;9.410;2023-12-04T10:07:58;97711.06;;;-1.01;79.06
9187;BME280;7273;48.902;9.410;2023-12-04T10:10:24;97710.97;;;-0.88;79.24
9187;BME280;7273;48.902;9.410;2023-12-04T10:12:50;97722.19;;;-0.86;78.81
9187;BME280;7273;48.902;9.410;2023-12-04T10:15:16;97710.34;;;-0.83;79.02
9187;BME280;7273;48.902;9.410;2023-12-04T10:17:42;97710.34;;;-0.83;78.98
9187;BME280;7273;48.902;9.410;2023-12-04T10:20:15;97703.84;;;-0.87;78.77
9187;BME280;7273;48.902;9.410;2023-12-04T10:23:11;97681.75;;;-0.81;78.84
9187;BME280;7273;48.902;9.410;2023-12-04T10:25:37;97698.06;;;-0.78;78.92
9187;BME280;7273;48.902;9.410;2023-12-04T10:28:10;97695.44;;;-0.84;78.76
9187;BME280;7273;48.902;9.410;2023-12-04T10:30:36;97677.91;;;-0.85;78.48
9187;BME280;7273;48.902;9.410;2023-12-04T10:33:04;97677.44;;;-0.76;78.91
9187;BME280;7273;48.902;9.410;2023-12-04T10:35:32;97680.38;;;-0.90;78.32
9187;BME280;7273;48.902;9.410;2023-12-04T10:37:58;97672.91;;;-0.75;78.25
9187;BME280;7273;48.902;9.410;2023-12-04T10:40:31;97676.63;;;-0.76;78.58
9187;BME280;7273;48.902;9.410;2023-12-04T10:43:17;97659.06;;;-0.77;78.66
9187;BME280;7273;48.902;9.410;2023-12-04T10:45:45;97672.31;;;-0.71;78.36
9187;BME280;7273;48.902;9.410;2023-12-04T10:48:11;97671.03;;;-0.68;78.44
9187;BME280;7273;48.902;9.410;2023-12-04T10:50:38;97673.47;;;-0.67;78.29
9187;BME280;7273;48.902;9.410;2023-12-04T10:53:08;97669.38;;;-0.63;78.49
9187;BME280;7273;48.902;9.410;2023-12-04T10:55:34;97664.03;;;-0.56;78.44
9187;BME280;7273;48.902;9.410;2023-12-04T10:58:11;97672.00;;;-0.56;78.79
9187;BME280;7273;48.902;9.410;2023-12-04T11:00:43;97674.81;;;-0.51;78.95
9187;BME280;7273;48.902;9.410;2023-12-04T11:03:13;97669.66;;;-0.46;78.41
9187;BME280;7273;48.902;9.410;2023-12-04T11:05:40;97667.00;;;-0.46;78.33
9187;BME280;7273;48.902;9.410;2023-12-04T11:08:11;97654.34;;;-0.51;78.49
9187;BME280;7273;48.902;9.410;2023-12-04T11:13:28;97640.47;;;-0.46;78.34
9187;BME280;7273;48.902;9.410;2023-12-04T11:16:00;97637.41;;;-0.50;78.35
9187;BME280;7273;48.902;9.410;2023-12-04T11:18:26;97632.06;;;-0.43;78.17
9187;BME280;7273;48.902;9.410;2023-12-04T11:21:04;97619.22;;;-0.46;77.92
9187;BME280;7273;48.902;9.410;2023-12-04T11:23:32;97603.44;;;-0.41;77.69
9187;BME280;7273;48.902;9.410;2023-12-04T11:25:58;97590.31;;;-0.36;77.96
9187;BME280;7273;48.902;9.410;2023-12-04T11:28:26;97572.44;;;-0.29;77.82
9187;BME280;7273;48.902;9.410;2023-12-04T11:30:53;97577.84;;;-0.18;77.97
9187;BME280;7273;48.902;9.410;2023-12-04T11:33:19;97572.75;;;-0.19;77.85
9187;BME280;7273;48.902;9.410;2023-12-04T11:35:45;97572.25;;;-0.10;78.10
9187;BME280;7273;48.902;9.410;2023-12-04T11:38:13;97569.13;;;-0.07;78.27
9187;BME280;7273;48.902;9.410;2023-12-04T11:40:40;97575.78;;;-0.16;78.25
9187;BME280;7273;48.902;9.410;2023-12-04T11:43:39;97573.13;;;-0.16;78.05
9187;BME280;7273;48.902;9.410;2023-12-04T11:46:08;97581.09;;;-0.16;78.09
9187;BME280;7273;48.902;9.410;2023-12-04T11:48:39;97583.53;;;-0.14;77.60
9187;BME280;7273;48.902;9.410;2023-12-04T11:51:08;97574.75;;;-0.15;77.49
9187;BME280;7273;48.902;9.410;2023-12-04T11:53:39;97580.97;;;-0.03;77.87
9187;BME280;7273;48.902;9.410;2023-12-04T11:56:09;97584.00;;;0.01;78.14
9187;BME280;7273;48.902;9.410;2023-12-04T11:58:42;97575.78;;;0.03;78.39
9187;BME280;7273;48.902;9.410;2023-12-04T12:01:07;97567.81;;;0.03;78.75
9187;BME280;7273;48.902;9.410;2023-12-04T12:03:33;97567.00;;;0.02;78.66
9187;BME280;7273;48.902;9.410;2023-12-04T12:05:58;97553.28;;;0.05;78.61
9187;BME280;7273;48.902;9.410;2023-12-04T12:08:24;97538.38;;;0.04;78.91
9187;BME280;7273;48.902;9.410;2023-12-04T12:10:50;97531.00;;;0.06;78.88
9187;BME280;7273;48.902;9.410;2023-12-04T12:13:17;97514.81;;;0.08;78.55
9187;BME280;7273;48.902;9.410;2023-12-04T12:15:46;97516.66;;;0.07;78.70
9187;BME280;7273;48.902;9.410;2023-12-04T12:18:12;97508.69;;;0.07;78.64
9187;BME280;7273;48.902;9.410;2023-12-04T12:20:37;97484.31;;;0.10;78.45
9187;BME280;7273;48.902;9.410;2023-12-04T12:23:03;97482.63;;;0.16;78.65
9187;BME280;7273;48.902;9.410;2023-12-04T12:25:28;97481.88;;;0.09;78.99
9187;BME280;7273;48.902;9.410;2023-12-04T12:27:54;97469.91;;;0.18;78.89
9187;BME280;7273;48.902;9.410;2023-12-04T12:30:19;97462.53;;;0.20;78.85
9187;BME280;7273;48.902;9.410;2023-12-04T12:32:45;97462.41;;;0.15;79.08
9187;BME280;7273;48.902;9.410;2023-12-04T12:35:10;97452.91;;;0.19;78.69
9187;BME280;7273;48.902;9.410;2023-12-04T12:37:38;97457.78;;;0.22;79.25
9187;BME280;7273;48.902;9.410;2023-12-04T12:40:04;97464.50;;;0.24;79.17
9187;BME280;7273;48.902;9.410;2023-12-04T12:42:30;97448.19;;;0.21;79.33
9187;BME280;7273;48.902;9.410;2023-12-04T12:45:00;97439.84;;;0.17;79.63
9187;BME280;7273;48.902;9.410;2023-12-04T12:47:26;97433.84;;;0.22;79.18
9187;BME280;7273;48.902;9.410;2023-12-04T12:49:52;97411.34;;;0.24;79.54
9187;BME280;7273;48.902;9.410;2023-12-04T12:52:17;97411.72;;;0.28;79.26
9187;BME280;7273;48.902;9.410;2023-12-04T12:54:45;97399.66;;;0.25;79.46
9187;BME280;7273;48.902;9.410;2023-12-04T12:57:11;97419.09;;;0.26;79.80
9187;BME280;7273;48.902;9.410;2023-12-04T12:59:39;97418.16;;;0.32;79.75
9187;BME280;7273;48.902;9.410;2023-12-04T13:02:05;97416.09;;;0.34;79.75
9187;BME280;7273;48.902;9.410;2023-12-04T13:04:40;97418.88;;;0.39;79.72
9187;BME280;7273;48.902;9.410;2023-12-04T13:07:05;97411.28;;;0.42;79.38
9187;BME280;7273;48.902;9.410;2023-12-04T13:09:34;97419.25;;;0.42;79.80
9187;BME280;7273;48.902;9.410;2023-12-04T13:12:04;97406.53;;;0.44;79.16
9187;BME280;7273;48.902;9.410;2023-12-04T13:14:30;97397.38;;;0.40;79.23
9187;BME280;7273;48.902;9.410;2023-12-04T13:16:55;97394.97;;;0.39;79.63
9187;BME280;7273;48.902;9.410;2023-12-04T13:19:22;97398.88;;;0.36;79.51
9187;BME280;7273;48.902;9.410;2023-12-04T13:21:48;97385.16;;;0.39;79.11